Aktuální počasí v Česku a ve světě - METAR

Seznam meteostanic umístěných nejčasteji na letišti v ČR a ve světě

Vyhledat místa podle abecedy:
A B C D E F G H I J K L M N O P Q R S T U V W X Y Z

Filtrovat:

ID stanice:
a/nebo
Název místa (fulltext):
 
Místo (ID)Naposledy načteno 
Yamoussoukro (DIYO) 24.09.2020 07:00 UTC Zobrazit METAR
DIYO 240700Z 00000KT 8000 BKN010 23/23 Q1015 NOSIG
Yangon (VYYY) 23.09.2020 03:00 UTC Zobrazit METAR
VYYY 230300Z 18004KT 7000 SCT020 SCT110 29/26 Q1010
Yaounde (FKYS) 24.09.2020 07:00 UTC Zobrazit METAR
FKYS 240700Z VRB02KT 8000 BKN006 21/21 Q1020 BECMG BKN010
Yerevan (UGEE) Zatím nenačteno  
Reklama

Počasí na Váš email

Emaily jsou bez reklamy a bez spamu



Odhlásit newsletter




Další české internetové stránky (nejen) o počasí najdete v katalogu TOPlist - weby o počasí nebo vyhledejte na internetu, co jste tu na 🌞 Slunečnu ⛅ zatím nenašli:
⭐ Přidat Slunečno.cz do oblíbených | 🏠 Nastavit Slunečno.cz jako HOMEPAGE

⬆️ Posunout stránku nahoru ⬆️
Reklama